الصفحة الرئيسية
METAR-TAF:

METAR-TAF

مطار :

Batajnica, صربيا

دائرة عرض: 44-56-07N, خط طول: 020-15-27E, ارتفاع: 86 متر

مراقبة الطقس الحالي

تاريخ ووقت الإصدار 25 دقيقة قبل الساعة 18:30UTC
ريح 4 عقدة من الجنوب الشرقي
درجة الحرارة 3°درجة مئوية
الرطوبة 56%
ضغط 1020 hPa
الرؤية 10 كم أو أكثر
الغيوم لا تقل 1500 م ولا وجود لمزنة ركامية السحاب الأسود

METAR: LYBT 011830Z 14004KT CAVOK 03/M05 Q1020 NOSIG

زمن: 20:55 (18:55 UTC)

توقعات

تاريخ ووقت الإصدار 1ساعة و 55 دقيقة قبل الساعة 17:00UTC
التوقعات صالحة من01 الساعة 18 UTC إلى 02 الساعة 18 UTC
ريح 8 عقدة من الشرق/الجنوب الشرقي
الرؤية 10 كم أو أكثر
غيوم متفرقة على ارتفاع 4000 قدم
مؤقت
من 02 الساعة 03 UTC إلى 02 الساعة 06 UTC
الرؤية: 3000 متر
غشاء

TAF: LYBT 011700Z 0118/0218 11008KT 9999 SCT040 TX08/0212Z TNM01/0204Z TEMPO 0203/0206 3000 BR

أرصاد الطقس والتوقعات من أكثر من 4000 مطار (تقارير الطقس للمطار METAR والتنبؤ بالطقس بالمطارTAF).

المحطات المتاحة هي النقط الصفراء والحمراء على الخريطة.

حرك المؤشر فوق النقطة لمعرفة اسم المحطة.

ثم انقر لمعرفة أرصاد وتوقعات الطقس.

لتغيير الخارطة: اضغط على الأزرار الخضراء مع رمز الصليب الأسود للتكبير. على الزر الأخضر مع شرطة للتصغير، أو على الأسهم الخضراء للخرائط المجاورة.


METAR-TAF: